sensor_id;sensor_type;location;lat;lon;timestamp;temperature;humidity
22917;DHT22;11624;53.250;7.456;2022-08-21T00:01:45;21.81;53.56
22917;DHT22;11624;53.250;7.456;2022-08-21T00:04:15;21.82;53.58
22917;DHT22;11624;53.250;7.456;2022-08-21T00:06:48;21.79;53.80
22917;DHT22;11624;53.250;7.456;2022-08-21T00:09:17;21.80;53.93
22917;DHT22;11624;53.250;7.456;2022-08-21T00:11:46;21.81;53.86
22917;DHT22;11624;53.250;7.456;2022-08-21T00:14:15;21.82;53.82
22917;DHT22;11624;53.250;7.456;2022-08-21T00:16:43;21.80;53.70
22917;DHT22;11624;53.250;7.456;2022-08-21T00:19:11;21.76;53.80
22917;DHT22;11624;53.250;7.456;2022-08-21T00:21:41;21.76;53.82
22917;DHT22;11624;53.250;7.456;2022-08-21T00:24:10;21.72;53.81
22917;DHT22;11624;53.250;7.456;2022-08-21T00:26:38;21.69;53.86
22917;DHT22;11624;53.250;7.456;2022-08-21T00:29:06;21.65;53.95
22917;DHT22;11624;53.250;7.456;2022-08-21T00:31:35;21.62;53.97
22917;DHT22;11624;53.250;7.456;2022-08-21T00:34:03;21.60;54.00
22917;DHT22;11624;53.250;7.456;2022-08-21T00:36:31;21.58;54.10
22917;DHT22;11624;53.250;7.456;2022-08-21T00:39:01;21.57;53.95
22917;DHT22;11624;53.250;7.456;2022-08-21T00:41:29;21.52;54.06
22917;DHT22;11624;53.250;7.456;2022-08-21T00:44:03;21.49;53.98
22917;DHT22;11624;53.250;7.456;2022-08-21T00:46:32;21.46;54.15
22917;DHT22;11624;53.250;7.456;2022-08-21T00:49:00;21.40;54.54
22917;DHT22;11624;53.250;7.456;2022-08-21T00:51:33;21.39;54.55
22917;DHT22;11624;53.250;7.456;2022-08-21T00:54:06;21.37;54.40
22917;DHT22;11624;53.250;7.456;2022-08-21T00:56:45;21.35;54.32
22917;DHT22;11624;53.250;7.456;2022-08-21T00:59:15;21.32;54.36
22917;DHT22;11624;53.250;7.456;2022-08-21T01:01:44;21.30;54.20
22917;DHT22;11624;53.250;7.456;2022-08-21T01:04:12;21.27;54.20
22917;DHT22;11624;53.250;7.456;2022-08-21T01:06:41;21.20;54.49
22917;DHT22;11624;53.250;7.456;2022-08-21T01:09:11;21.20;54.49
22917;DHT22;11624;53.250;7.456;2022-08-21T01:11:39;21.16;54.46
22917;DHT22;11624;53.250;7.456;2022-08-21T01:14:09;21.11;54.37
22917;DHT22;11624;53.250;7.456;2022-08-21T01:16:39;21.08;54.46
22917;DHT22;11624;53.250;7.456;2022-08-21T01:19:08;21.04;54.49
22917;DHT22;11624;53.250;7.456;2022-08-21T01:21:39;21.00;54.50
22917;DHT22;11624;53.250;7.456;2022-08-21T01:24:10;20.93;54.58
22917;DHT22;11624;53.250;7.456;2022-08-21T01:26:39;20.91;54.53
22917;DHT22;11624;53.250;7.456;2022-08-21T01:29:13;20.87;54.45
22917;DHT22;11624;53.250;7.456;2022-08-21T01:31:42;20.83;54.59
22917;DHT22;11624;53.250;7.456;2022-08-21T01:34:12;20.79;54.61
22917;DHT22;11624;53.250;7.456;2022-08-21T01:36:44;20.75;54.75
22917;DHT22;11624;53.250;7.456;2022-08-21T01:39:13;20.72;54.89
22917;DHT22;11624;53.250;7.456;2022-08-21T01:41:42;20.69;54.87
22917;DHT22;11624;53.250;7.456;2022-08-21T01:44:11;20.65;54.81
22917;DHT22;11624;53.250;7.456;2022-08-21T01:46:39;20.63;54.88
22917;DHT22;11624;53.250;7.456;2022-08-21T01:49:07;20.62;54.89
22917;DHT22;11624;53.250;7.456;2022-08-21T01:51:35;20.61;54.87
22917;DHT22;11624;53.250;7.456;2022-08-21T01:54:05;20.60;54.95
22917;DHT22;11624;53.250;7.456;2022-08-21T01:56:36;20.59;54.97
22917;DHT22;11624;53.250;7.456;2022-08-21T01:59:05;20.56;55.02
22917;DHT22;11624;53.250;7.456;2022-08-21T02:01:34;20.54;54.99
22917;DHT22;11624;53.250;7.456;2022-08-21T02:04:02;20.51;54.97
22917;DHT22;11624;53.250;7.456;2022-08-21T02:06:30;20.49;54.94
22917;DHT22;11624;53.250;7.456;2022-08-21T02:08:58;20.46;54.94
22917;DHT22;11624;53.250;7.456;2022-08-21T02:11:28;20.45;55.03
22917;DHT22;11624;53.250;7.456;2022-08-21T02:13:56;20.43;55.05
22917;DHT22;11624;53.250;7.456;2022-08-21T02:16:24;20.41;55.16
22917;DHT22;11624;53.250;7.456;2022-08-21T02:18:52;20.40;55.26
22917;DHT22;11624;53.250;7.456;2022-08-21T02:21:20;20.37;55.23
22917;DHT22;11624;53.250;7.456;2022-08-21T02:23:48;20.36;55.23
22917;DHT22;11624;53.250;7.456;2022-08-21T02:26:16;20.33;55.26
22917;DHT22;11624;53.250;7.456;2022-08-21T02:28:46;20.32;55.26
22917;DHT22;11624;53.250;7.456;2022-08-21T02:31:14;20.30;55.13
22917;DHT22;11624;53.250;7.456;2022-08-21T02:33:42;20.30;55.17
22917;DHT22;11624;53.250;7.456;2022-08-21T02:36:11;20.27;55.34
22917;DHT22;11624;53.250;7.456;2022-08-21T02:38:41;20.26;55.23
22917;DHT22;11624;53.250;7.456;2022-08-21T02:41:12;20.24;55.24
22917;DHT22;11624;53.250;7.456;2022-08-21T02:43:41;20.20;55.29
22917;DHT22;11624;53.250;7.456;2022-08-21T02:46:14;20.18;55.23
22917;DHT22;11624;53.250;7.456;2022-08-21T02:48:43;20.15;55.37
22917;DHT22;11624;53.250;7.456;2022-08-21T02:51:13;20.14;55.39
22917;DHT22;11624;53.250;7.456;2022-08-21T02:53:41;20.09;55.54
22917;DHT22;11624;53.250;7.456;2022-08-21T02:56:11;20.06;55.57
22917;DHT22;11624;53.250;7.456;2022-08-21T02:58:42;20.04;55.55
22917;DHT22;11624;53.250;7.456;2022-08-21T03:01:12;20.01;55.55
22917;DHT22;11624;53.250;7.456;2022-08-21T03:03:43;20.01;55.70
22917;DHT22;11624;53.250;7.456;2022-08-21T03:06:13;19.99;55.72
22917;DHT22;11624;53.250;7.456;2022-08-21T03:08:42;19.98;55.83
22917;DHT22;11624;53.250;7.456;2022-08-21T03:11:12;19.96;55.84
22917;DHT22;11624;53.250;7.456;2022-08-21T03:13:41;19.95;55.81
22917;DHT22;11624;53.250;7.456;2022-08-21T03:16:09;19.94;55.90
22917;DHT22;11624;53.250;7.456;2022-08-21T03:18:39;19.91;55.94
22917;DHT22;11624;53.250;7.456;2022-08-21T03:21:07;19.87;55.88
22917;DHT22;11624;53.250;7.456;2022-08-21T03:23:35;19.87;55.78
22917;DHT22;11624;53.250;7.456;2022-08-21T03:26:07;19.83;55.84
22917;DHT22;11624;53.250;7.456;2022-08-21T03:28:35;19.80;55.89
22917;DHT22;11624;53.250;7.456;2022-08-21T03:31:03;19.79;55.88
22917;DHT22;11624;53.250;7.456;2022-08-21T03:33:32;19.74;55.90
22917;DHT22;11624;53.250;7.456;2022-08-21T03:36:04;19.72;55.74
22917;DHT22;11624;53.250;7.456;2022-08-21T03:38:34;19.70;55.87
22917;DHT22;11624;53.250;7.456;2022-08-21T03:41:03;19.65;55.84
22917;DHT22;11624;53.250;7.456;2022-08-21T03:43:33;19.61;55.93
22917;DHT22;11624;53.250;7.456;2022-08-21T03:46:03;19.59;55.93
22917;DHT22;11624;53.250;7.456;2022-08-21T03:48:32;19.57;55.91
22917;DHT22;11624;53.250;7.456;2022-08-21T03:51:02;19.55;55.94
22917;DHT22;11624;53.250;7.456;2022-08-21T03:53:30;19.52;56.07
22917;DHT22;11624;53.250;7.456;2022-08-21T03:55:58;19.51;56.09
22917;DHT22;11624;53.250;7.456;2022-08-21T03:58:27;19.51;56.18
22917;DHT22;11624;53.250;7.456;2022-08-21T04:00:58;19.46;56.33
22917;DHT22;11624;53.250;7.456;2022-08-21T04:03:27;19.45;56.39
22917;DHT22;11624;53.250;7.456;2022-08-21T04:08:25;19.44;56.47
22917;DHT22;11624;53.250;7.456;2022-08-21T04:10:55;19.45;56.59
22917;DHT22;11624;53.250;7.456;2022-08-21T04:13:24;19.46;56.84
22917;DHT22;11624;53.250;7.456;2022-08-21T04:15:54;19.50;57.03
22917;DHT22;11624;53.250;7.456;2022-08-21T04:18:23;19.53;57.35
22917;DHT22;11624;53.250;7.456;2022-08-21T04:20:52;19.55;57.57
22917;DHT22;11624;53.250;7.456;2022-08-21T04:23:21;19.58;57.84
22917;DHT22;11624;53.250;7.456;2022-08-21T04:25:53;19.62;57.82
22917;DHT22;11624;53.250;7.456;2022-08-21T04:28:23;19.63;57.77
22917;DHT22;11624;53.250;7.456;2022-08-21T04:30:55;19.68;57.87
22917;DHT22;11624;53.250;7.456;2022-08-21T04:33:23;19.70;57.89
22917;DHT22;11624;53.250;7.456;2022-08-21T04:35:52;19.73;57.88
22917;DHT22;11624;53.250;7.456;2022-08-21T04:38:20;19.75;57.87
22917;DHT22;11624;53.250;7.456;2022-08-21T04:40:49;19.82;57.90
22917;DHT22;11624;53.250;7.456;2022-08-21T04:43:20;19.82;57.81
22917;DHT22;11624;53.250;7.456;2022-08-21T04:45:50;19.84;57.90
22917;DHT22;11624;53.250;7.456;2022-08-21T04:48:21;19.84;57.96
22917;DHT22;11624;53.250;7.456;2022-08-21T04:50:53;19.88;57.95
22917;DHT22;11624;53.250;7.456;2022-08-21T04:53:25;19.89;58.11
22917;DHT22;11624;53.250;7.456;2022-08-21T04:55:54;19.90;58.62
22917;DHT22;11624;53.250;7.456;2022-08-21T04:58:26;19.97;58.69
22917;DHT22;11624;53.250;7.456;2022-08-21T05:00:56;20.01;58.88
22917;DHT22;11624;53.250;7.456;2022-08-21T05:03:26;20.07;59.05
22917;DHT22;11624;53.250;7.456;2022-08-21T05:05:54;20.12;59.16
22917;DHT22;11624;53.250;7.456;2022-08-21T05:08:25;20.21;59.08
22917;DHT22;11624;53.250;7.456;2022-08-21T05:10:55;20.26;59.11
22917;DHT22;11624;53.250;7.456;2022-08-21T05:13:29;20.32;59.03
22917;DHT22;11624;53.250;7.456;2022-08-21T05:15:57;20.34;59.36
22917;DHT22;11624;53.250;7.456;2022-08-21T05:18:25;20.35;59.50
22917;DHT22;11624;53.250;7.456;2022-08-21T05:20:53;20.41;59.58
22917;DHT22;11624;53.250;7.456;2022-08-21T05:23:21;20.47;59.51
22917;DHT22;11624;53.250;7.456;2022-08-21T05:25:49;20.53;59.55
22917;DHT22;11624;53.250;7.456;2022-08-21T05:28:18;20.62;59.44
22917;DHT22;11624;53.250;7.456;2022-08-21T05:30:48;20.70;59.35
22917;DHT22;11624;53.250;7.456;2022-08-21T05:33:16;20.77;59.31
22917;DHT22;11624;53.250;7.456;2022-08-21T05:35:44;20.85;59.25
22917;DHT22;11624;53.250;7.456;2022-08-21T05:38:12;20.93;59.22
22917;DHT22;11624;53.250;7.456;2022-08-21T05:40:44;21.03;58.99
22917;DHT22;11624;53.250;7.456;2022-08-21T05:43:13;21.07;58.95
22917;DHT22;11624;53.250;7.456;2022-08-21T05:45:41;21.14;58.90
22917;DHT22;11624;53.250;7.456;2022-08-21T05:48:14;21.24;58.71
22917;DHT22;11624;53.250;7.456;2022-08-21T05:50:43;21.32;58.62
22917;DHT22;11624;53.250;7.456;2022-08-21T05:53:12;21.38;58.51
22917;DHT22;11624;53.250;7.456;2022-08-21T05:55:41;21.45;58.41
22917;DHT22;11624;53.250;7.456;2022-08-21T05:58:13;21.53;58.23
22917;DHT22;11624;53.250;7.456;2022-08-21T06:00:41;21.60;58.19
22917;DHT22;11624;53.250;7.456;2022-08-21T06:03:15;21.63;57.98
22917;DHT22;11624;53.250;7.456;2022-08-21T06:05:44;21.68;58.04
22917;DHT22;11624;53.250;7.456;2022-08-21T06:08:13;21.77;57.98
22917;DHT22;11624;53.250;7.456;2022-08-21T06:10:41;21.87;57.72
22917;DHT22;11624;53.250;7.456;2022-08-21T06:13:09;21.97;57.64
22917;DHT22;11624;53.250;7.456;2022-08-21T06:15:38;22.06;57.48
22917;DHT22;11624;53.250;7.456;2022-08-21T06:18:06;22.09;57.42
22917;DHT22;11624;53.250;7.456;2022-08-21T06:20:36;22.19;57.07
22917;DHT22;11624;53.250;7.456;2022-08-21T06:23:05;22.26;56.97
22917;DHT22;11624;53.250;7.456;2022-08-21T06:25:33;22.33;56.77
22917;DHT22;11624;53.250;7.456;2022-08-21T06:28:03;22.40;56.61
22917;DHT22;11624;53.250;7.456;2022-08-21T06:30:32;22.47;56.55
22917;DHT22;11624;53.250;7.456;2022-08-21T06:33:00;22.57;56.48
22917;DHT22;11624;53.250;7.456;2022-08-21T06:35:30;22.68;56.31
22917;DHT22;11624;53.250;7.456;2022-08-21T06:37:59;22.77;56.17
22917;DHT22;11624;53.250;7.456;2022-08-21T06:40:28;22.87;56.04
22917;DHT22;11624;53.250;7.456;2022-08-21T06:43:06;22.93;55.44
22917;DHT22;11624;53.250;7.456;2022-08-21T06:45:34;22.95;55.44
22917;DHT22;11624;53.250;7.456;2022-08-21T06:48:03;23.00;55.65
22917;DHT22;11624;53.250;7.456;2022-08-21T06:50:32;23.11;55.67
22917;DHT22;11624;53.250;7.456;2022-08-21T06:53:04;23.26;55.42
22917;DHT22;11624;53.250;7.456;2022-08-21T06:55:32;23.40;55.18
22917;DHT22;11624;53.250;7.456;2022-08-21T06:58:00;23.47;54.97
22917;DHT22;11624;53.250;7.456;2022-08-21T07:00:29;23.61;54.72
22917;DHT22;11624;53.250;7.456;2022-08-21T07:02:58;23.71;54.40
22917;DHT22;11624;53.250;7.456;2022-08-21T07:05:26;23.82;53.88
22917;DHT22;11624;53.250;7.456;2022-08-21T07:07:56;23.83;54.09
22917;DHT22;11624;53.250;7.456;2022-08-21T07:10:26;23.94;53.94
22917;DHT22;11624;53.250;7.456;2022-08-21T07:12:54;24.03;53.81
22917;DHT22;11624;53.250;7.456;2022-08-21T07:15:27;24.17;53.64
22917;DHT22;11624;53.250;7.456;2022-08-21T07:17:56;24.32;53.39
22917;DHT22;11624;53.250;7.456;2022-08-21T07:20:25;24.47;53.51
22917;DHT22;11624;53.250;7.456;2022-08-21T07:22:53;24.65;52.91
22917;DHT22;11624;53.250;7.456;2022-08-21T07:25:22;24.99;51.98
22917;DHT22;11624;53.250;7.456;2022-08-21T07:27:51;25.36;51.16
22917;DHT22;11624;53.250;7.456;2022-08-21T07:30:19;25.68;50.27
22917;DHT22;11624;53.250;7.456;2022-08-21T07:32:48;26.11;50.12
22917;DHT22;11624;53.250;7.456;2022-08-21T07:35:17;26.51;48.41
22917;DHT22;11624;53.250;7.456;2022-08-21T07:37:45;26.66;47.83
22917;DHT22;11624;53.250;7.456;2022-08-21T07:40:14;26.77;47.41
22917;DHT22;11624;53.250;7.456;2022-08-21T07:42:43;26.87;47.08
22917;DHT22;11624;53.250;7.456;2022-08-21T07:45:13;26.95;47.25
22917;DHT22;11624;53.250;7.456;2022-08-21T07:47:43;27.23;46.83
22917;DHT22;11624;53.250;7.456;2022-08-21T07:50:11;27.47;46.01
22917;DHT22;11624;53.250;7.456;2022-08-21T07:52:40;27.59;45.97
22917;DHT22;11624;53.250;7.456;2022-08-21T07:55:10;27.74;46.06
22917;DHT22;11624;53.250;7.456;2022-08-21T07:57:39;27.89;44.62
22917;DHT22;11624;53.250;7.456;2022-08-21T08:00:10;27.83;44.57
22917;DHT22;11624;53.250;7.456;2022-08-21T08:02:40;27.85;44.74
22917;DHT22;11624;53.250;7.456;2022-08-21T08:05:10;27.98;45.05
22917;DHT22;11624;53.250;7.456;2022-08-21T08:07:39;28.12;44.48
22917;DHT22;11624;53.250;7.456;2022-08-21T08:10:09;28.21;44.67
22917;DHT22;11624;53.250;7.456;2022-08-21T08:12:39;28.42;43.77
22917;DHT22;11624;53.250;7.456;2022-08-21T08:15:09;28.55;43.45
22917;DHT22;11624;53.250;7.456;2022-08-21T08:17:39;28.52;42.32
22917;DHT22;11624;53.250;7.456;2022-08-21T08:20:09;28.46;41.97
22917;DHT22;11624;53.250;7.456;2022-08-21T08:22:39;28.42;42.31
22917;DHT22;11624;53.250;7.456;2022-08-21T08:25:09;28.41;42.53
22917;DHT22;11624;53.250;7.456;2022-08-21T08:27:38;28.43;42.05
22917;DHT22;11624;53.250;7.456;2022-08-21T08:30:08;28.39;41.56
22917;DHT22;11624;53.250;7.456;2022-08-21T08:32:37;28.37;41.71
22917;DHT22;11624;53.250;7.456;2022-08-21T08:35:08;28.33;41.46
22917;DHT22;11624;53.250;7.456;2022-08-21T08:37:39;28.24;41.41
22917;DHT22;11624;53.250;7.456;2022-08-21T08:40:11;28.33;42.45
22917;DHT22;11624;53.250;7.456;2022-08-21T08:42:40;28.32;41.50
22917;DHT22;11624;53.250;7.456;2022-08-21T08:45:12;28.38;41.13
22917;DHT22;11624;53.250;7.456;2022-08-21T08:47:44;28.39;40.91
22917;DHT22;11624;53.250;7.456;2022-08-21T08:50:18;28.47;41.08
22917;DHT22;11624;53.250;7.456;2022-08-21T08:52:54;28.41;40.62
22917;DHT22;11624;53.250;7.456;2022-08-21T08:55:28;28.42;40.57
22917;DHT22;11624;53.250;7.456;2022-08-21T08:58:00;28.55;40.43
22917;DHT22;11624;53.250;7.456;2022-08-21T09:00:31;28.71;40.87
22917;DHT22;11624;53.250;7.456;2022-08-21T09:03:02;28.92;39.80
22917;DHT22;11624;53.250;7.456;2022-08-21T09:05:39;28.97;38.38
22917;DHT22;11624;53.250;7.456;2022-08-21T09:08:39;29.01;38.20
22917;DHT22;11624;53.250;7.456;2022-08-21T09:11:16;29.14;39.35
22917;DHT22;11624;53.250;7.456;2022-08-21T09:13:51;29.22;38.43
22917;DHT22;11624;53.250;7.456;2022-08-21T09:16:30;29.31;38.55
22917;DHT22;11624;53.250;7.456;2022-08-21T09:19:09;29.52;39.00
22917;DHT22;11624;53.250;7.456;2022-08-21T09:21:59;29.82;37.59
22917;DHT22;11624;53.250;7.456;2022-08-21T09:24:32;30.00;36.85
22917;DHT22;11624;53.250;7.456;2022-08-21T09:27:05;30.03;36.82
22917;DHT22;11624;53.250;7.456;2022-08-21T09:29:37;29.94;36.79
22917;DHT22;11624;53.250;7.456;2022-08-21T09:32:11;30.04;36.50
22917;DHT22;11624;53.250;7.456;2022-08-21T09:34:56;30.19;35.95
22917;DHT22;11624;53.250;7.456;2022-08-21T09:37:26;30.39;35.12
22917;DHT22;11624;53.250;7.456;2022-08-21T09:39:56;30.23;34.70
22917;DHT22;11624;53.250;7.456;2022-08-21T09:42:27;29.80;35.81
22917;DHT22;11624;53.250;7.456;2022-08-21T09:45:08;29.45;36.34
22917;DHT22;11624;53.250;7.456;2022-08-21T09:47:37;29.52;37.02
22917;DHT22;11624;53.250;7.456;2022-08-21T09:50:12;29.80;35.30
22917;DHT22;11624;53.250;7.456;2022-08-21T09:52:48;30.03;34.35
22917;DHT22;11624;53.250;7.456;2022-08-21T09:55:28;29.90;34.43
22917;DHT22;11624;53.250;7.456;2022-08-21T09:58:17;29.52;35.94
22917;DHT22;11624;53.250;7.456;2022-08-21T10:00:45;29.67;35.86
22917;DHT22;11624;53.250;7.456;2022-08-21T10:03:23;30.11;34.42
22917;DHT22;11624;53.250;7.456;2022-08-21T10:05:55;29.94;34.57
22917;DHT22;11624;53.250;7.456;2022-08-21T10:12:19;29.97;34.90
22917;DHT22;11624;53.250;7.456;2022-08-21T10:15:45;30.38;34.54
22917;DHT22;11624;53.250;7.456;2022-08-21T10:23:04;31.26;31.15
22917;DHT22;11624;53.250;7.456;2022-08-21T10:34:07;31.12;30.78
22917;DHT22;11624;53.250;7.456;2022-08-21T10:36:46;30.91;31.54
22917;DHT22;11624;53.250;7.456;2022-08-21T10:39:45;31.39;31.26
22917;DHT22;11624;53.250;7.456;2022-08-21T10:43:22;32.15;30.00
22917;DHT22;11624;53.250;7.456;2022-08-21T10:46:01;32.60;28.72
22917;DHT22;11624;53.250;7.456;2022-08-21T10:48:46;32.90;27.92
22917;DHT22;11624;53.250;7.456;2022-08-21T10:51:23;33.32;27.71
22917;DHT22;11624;53.250;7.456;2022-08-21T10:54:09;34.00;27.87
22917;DHT22;11624;53.250;7.456;2022-08-21T11:00:33;34.54;25.54
22917;DHT22;11624;53.250;7.456;2022-08-21T11:04:09;34.77;25.31
22917;DHT22;11624;53.250;7.456;2022-08-21T11:07:07;34.66;25.56
22917;DHT22;11624;53.250;7.456;2022-08-21T11:10:13;34.61;25.97
22917;DHT22;11624;53.250;7.456;2022-08-21T11:13:21;35.00;24.85
22917;DHT22;11624;53.250;7.456;2022-08-21T11:16:42;35.20;23.97
22917;DHT22;11624;53.250;7.456;2022-08-21T11:19:24;35.47;24.99
22917;DHT22;11624;53.250;7.456;2022-08-21T11:22:08;36.01;24.00
22917;DHT22;11624;53.250;7.456;2022-08-21T11:24:56;36.32;22.67
22917;DHT22;11624;53.250;7.456;2022-08-21T11:27:32;36.54;22.68
22917;DHT22;11624;53.250;7.456;2022-08-21T11:30:04;36.66;22.37
22917;DHT22;11624;53.250;7.456;2022-08-21T11:32:50;36.75;21.72
22917;DHT22;11624;53.250;7.456;2022-08-21T11:35:32;37.02;22.19
22917;DHT22;11624;53.250;7.456;2022-08-21T11:38:13;36.96;21.22
22917;DHT22;11624;53.250;7.456;2022-08-21T11:40:58;36.07;21.73
22917;DHT22;11624;53.250;7.456;2022-08-21T11:43:37;35.73;21.82
22917;DHT22;11624;53.250;7.456;2022-08-21T11:46:24;35.82;21.09
22917;DHT22;11624;53.250;7.456;2022-08-21T11:49:08;35.80;21.69
22917;DHT22;11624;53.250;7.456;2022-08-21T11:51:44;36.03;22.08
22917;DHT22;11624;53.250;7.456;2022-08-21T11:54:22;36.14;22.76
22917;DHT22;11624;53.250;7.456;2022-08-21T11:56:55;36.29;22.37
22917;DHT22;11624;53.250;7.456;2022-08-21T11:59:32;36.36;21.68
22917;DHT22;11624;53.250;7.456;2022-08-21T12:02:12;36.52;21.37
22917;DHT22;11624;53.250;7.456;2022-08-21T12:04:47;36.28;20.63
22917;DHT22;11624;53.250;7.456;2022-08-21T12:07:30;36.46;21.21
22917;DHT22;11624;53.250;7.456;2022-08-21T12:10:03;36.45;19.95
22917;DHT22;11624;53.250;7.456;2022-08-21T12:12:34;36.34;20.30
22917;DHT22;11624;53.250;7.456;2022-08-21T12:15:25;36.56;21.24
22917;DHT22;11624;53.250;7.456;2022-08-21T12:17:56;37.10;20.28
22917;DHT22;11624;53.250;7.456;2022-08-21T12:21:03;37.44;19.87
22917;DHT22;11624;53.250;7.456;2022-08-21T12:23:34;37.47;20.89
22917;DHT22;11624;53.250;7.456;2022-08-21T12:26:24;37.48;19.99
22917;DHT22;11624;53.250;7.456;2022-08-21T12:29:13;37.30;19.16
22917;DHT22;11624;53.250;7.456;2022-08-21T12:31:52;36.47;20.14
22917;DHT22;11624;53.250;7.456;2022-08-21T12:34:23;35.85;21.37
22917;DHT22;11624;53.250;7.456;2022-08-21T12:36:58;35.29;22.15
22917;DHT22;11624;53.250;7.456;2022-08-21T12:39:28;34.85;23.33
22917;DHT22;11624;53.250;7.456;2022-08-21T12:42:04;34.64;23.77
22917;DHT22;11624;53.250;7.456;2022-08-21T12:44:38;34.34;23.84
22917;DHT22;11624;53.250;7.456;2022-08-21T12:47:14;34.09;24.29
22917;DHT22;11624;53.250;7.456;2022-08-21T12:49:52;33.80;24.24
22917;DHT22;11624;53.250;7.456;2022-08-21T12:52:23;33.77;24.88
22917;DHT22;11624;53.250;7.456;2022-08-21T12:54:51;33.61;25.81
22917;DHT22;11624;53.250;7.456;2022-08-21T12:57:23;33.40;25.81
22917;DHT22;11624;53.250;7.456;2022-08-21T12:59:55;33.38;26.33
22917;DHT22;11624;53.250;7.456;2022-08-21T13:02:28;33.36;26.52
22917;DHT22;11624;53.250;7.456;2022-08-21T13:05:08;33.02;26.73
22917;DHT22;11624;53.250;7.456;2022-08-21T13:08:11;32.64;27.55
22917;DHT22;11624;53.250;7.456;2022-08-21T13:10:41;32.63;28.61
22917;DHT22;11624;53.250;7.456;2022-08-21T13:13:17;32.94;28.12
22917;DHT22;11624;53.250;7.456;2022-08-21T13:15:57;33.16;27.51
22917;DHT22;11624;53.250;7.456;2022-08-21T13:18:28;33.46;27.81
22917;DHT22;11624;53.250;7.456;2022-08-21T13:21:07;33.42;27.74
22917;DHT22;11624;53.250;7.456;2022-08-21T13:23:35;33.19;27.89
22917;DHT22;11624;53.250;7.456;2022-08-21T13:26:12;33.13;27.64
22917;DHT22;11624;53.250;7.456;2022-08-21T13:28:46;33.05;27.82
22917;DHT22;11624;53.250;7.456;2022-08-21T13:31:18;32.88;28.65
22917;DHT22;11624;53.250;7.456;2022-08-21T13:33:48;32.93;29.33
22917;DHT22;11624;53.250;7.456;2022-08-21T13:36:20;33.23;28.28
22917;DHT22;11624;53.250;7.456;2022-08-21T13:38:53;33.43;27.88
22917;DHT22;11624;53.250;7.456;2022-08-21T13:41:24;33.78;28.13
22917;DHT22;11624;53.250;7.456;2022-08-21T13:44:00;33.86;27.29
22917;DHT22;11624;53.250;7.456;2022-08-21T13:46:31;33.50;27.68
22917;DHT22;11624;53.250;7.456;2022-08-21T13:49:00;33.34;27.58
22917;DHT22;11624;53.250;7.456;2022-08-21T13:51:30;33.25;28.26
22917;DHT22;11624;53.250;7.456;2022-08-21T13:53:59;33.26;28.11
22917;DHT22;11624;53.250;7.456;2022-08-21T13:56:29;33.42;29.11
22917;DHT22;11624;53.250;7.456;2022-08-21T13:59:00;33.73;27.44
22917;DHT22;11624;53.250;7.456;2022-08-21T14:01:31;33.74;29.21
22917;DHT22;11624;53.250;7.456;2022-08-21T14:04:02;33.29;31.27
22917;DHT22;11624;53.250;7.456;2022-08-21T14:06:34;33.03;31.94
22917;DHT22;11624;53.250;7.456;2022-08-21T14:09:09;32.82;32.05
22917;DHT22;11624;53.250;7.456;2022-08-21T14:11:39;32.43;32.69
22917;DHT22;11624;53.250;7.456;2022-08-21T14:14:23;32.08;33.11
22917;DHT22;11624;53.250;7.456;2022-08-21T14:16:54;31.86;34.27
22917;DHT22;11624;53.250;7.456;2022-08-21T14:19:27;31.72;34.26
22917;DHT22;11624;53.250;7.456;2022-08-21T14:22:23;31.55;34.41
22917;DHT22;11624;53.250;7.456;2022-08-21T14:25:12;31.50;35.28
22917;DHT22;11624;53.250;7.456;2022-08-21T14:27:44;31.51;35.54
22917;DHT22;11624;53.250;7.456;2022-08-21T14:30:20;31.50;35.57
22917;DHT22;11624;53.250;7.456;2022-08-21T14:32:49;31.49;36.17
22917;DHT22;11624;53.250;7.456;2022-08-21T14:35:17;31.63;36.42
22917;DHT22;11624;53.250;7.456;2022-08-21T14:37:50;31.89;36.05
22917;DHT22;11624;53.250;7.456;2022-08-21T14:40:22;32.08;34.59
22917;DHT22;11624;53.250;7.456;2022-08-21T14:43:00;31.89;34.50
22917;DHT22;11624;53.250;7.456;2022-08-21T14:45:31;31.70;34.70
22917;DHT22;11624;53.250;7.456;2022-08-21T14:48:03;31.50;35.10
22917;DHT22;11624;53.250;7.456;2022-08-21T14:50:34;31.28;35.71
22917;DHT22;11624;53.250;7.456;2022-08-21T14:53:02;31.24;36.48
22917;DHT22;11624;53.250;7.456;2022-08-21T14:55:38;31.23;36.70
22917;DHT22;11624;53.250;7.456;2022-08-21T14:58:20;31.21;35.73
22917;DHT22;11624;53.250;7.456;2022-08-21T15:00:55;31.06;36.45
22917;DHT22;11624;53.250;7.456;2022-08-21T15:03:25;30.95;36.18
22917;DHT22;11624;53.250;7.456;2022-08-21T15:05:53;30.76;36.41
22917;DHT22;11624;53.250;7.456;2022-08-21T15:08:21;30.61;37.06
22917;DHT22;11624;53.250;7.456;2022-08-21T15:10:51;30.47;37.43
22917;DHT22;11624;53.250;7.456;2022-08-21T15:13:44;30.28;37.71
22917;DHT22;11624;53.250;7.456;2022-08-21T15:16:42;30.10;38.50
22917;DHT22;11624;53.250;7.456;2022-08-21T15:19:13;30.02;38.91
22917;DHT22;11624;53.250;7.456;2022-08-21T15:21:44;29.96;39.39
22917;DHT22;11624;53.250;7.456;2022-08-21T15:24:26;29.85;39.75
22917;DHT22;11624;53.250;7.456;2022-08-21T15:27:36;29.78;40.41
22917;DHT22;11624;53.250;7.456;2022-08-21T15:30:06;29.73;40.72
22917;DHT22;11624;53.250;7.456;2022-08-21T15:32:48;29.60;41.15
22917;DHT22;11624;53.250;7.456;2022-08-21T15:35:17;29.52;41.71
22917;DHT22;11624;53.250;7.456;2022-08-21T15:37:46;29.45;41.62
22917;DHT22;11624;53.250;7.456;2022-08-21T15:40:15;29.39;42.01
22917;DHT22;11624;53.250;7.456;2022-08-21T15:42:43;29.45;42.68
22917;DHT22;11624;53.250;7.456;2022-08-21T15:45:13;29.60;42.52
22917;DHT22;11624;53.250;7.456;2022-08-21T15:47:44;29.73;42.04
22917;DHT22;11624;53.250;7.456;2022-08-21T15:50:13;29.81;41.97
22917;DHT22;11624;53.250;7.456;2022-08-21T15:52:41;29.83;42.04
22917;DHT22;11624;53.250;7.456;2022-08-21T15:55:10;29.85;41.91
22917;DHT22;11624;53.250;7.456;2022-08-21T15:57:43;29.79;41.30
22917;DHT22;11624;53.250;7.456;2022-08-21T16:00:24;29.76;41.15
22917;DHT22;11624;53.250;7.456;2022-08-21T16:02:55;29.75;41.20
22917;DHT22;11624;53.250;7.456;2022-08-21T16:05:25;29.81;40.90
22917;DHT22;11624;53.250;7.456;2022-08-21T16:08:15;29.97;40.70
22917;DHT22;11624;53.250;7.456;2022-08-21T16:10:43;30.05;40.26
22917;DHT22;11624;53.250;7.456;2022-08-21T16:13:16;30.11;39.68
22917;DHT22;11624;53.250;7.456;2022-08-21T16:15:46;30.15;39.10
22917;DHT22;11624;53.250;7.456;2022-08-21T16:18:14;30.21;38.68
22917;DHT22;11624;53.250;7.456;2022-08-21T16:20:44;30.25;38.86
22917;DHT22;11624;53.250;7.456;2022-08-21T16:23:12;30.26;38.98
22917;DHT22;11624;53.250;7.456;2022-08-21T16:25:41;30.21;39.16
22917;DHT22;11624;53.250;7.456;2022-08-21T16:28:12;30.12;38.88
22917;DHT22;11624;53.250;7.456;2022-08-21T16:30:42;30.04;38.92